sensor_id;sensor_type;location;lat;lon;timestamp;P1;durP1;ratioP1;P2;durP2;ratioP2
60919;SDS011;59039;52.108;19.942;2024-01-16T00:00:43;2.50;;;1.30;;
60919;SDS011;59039;52.108;19.942;2024-01-16T00:03:08;2.50;;;1.40;;
60919;SDS011;59039;52.108;19.942;2024-01-16T00:05:33;1.40;;;1.30;;
60919;SDS011;59039;52.108;19.942;2024-01-16T00:07:58;2.10;;;1.50;;
60919;SDS011;59039;52.108;19.942;2024-01-16T00:10:24;3.40;;;1.50;;
60919;SDS011;59039;52.108;19.942;2024-01-16T00:12:49;1.90;;;1.40;;
60919;SDS011;59039;52.108;19.942;2024-01-16T00:15:14;1.50;;;1.40;;
60919;SDS011;59039;52.108;19.942;2024-01-16T00:17:39;1.50;;;1.40;;
60919;SDS011;59039;52.108;19.942;2024-01-16T00:20:04;2.30;;;1.80;;
60919;SDS011;59039;52.108;19.942;2024-01-16T00:22:30;1.50;;;1.40;;
60919;SDS011;59039;52.108;19.942;2024-01-16T00:24:55;2.40;;;1.60;;
60919;SDS011;59039;52.108;19.942;2024-01-16T00:27:21;2.10;;;1.40;;
60919;SDS011;59039;52.108;19.942;2024-01-16T00:29:46;2.50;;;1.40;;
60919;SDS011;59039;52.108;19.942;2024-01-16T00:32:11;1.80;;;1.60;;
60919;SDS011;59039;52.108;19.942;2024-01-16T00:34:36;2.10;;;1.70;;
60919;SDS011;59039;52.108;19.942;2024-01-16T00:37:02;1.70;;;1.40;;
60919;SDS011;59039;52.108;19.942;2024-01-16T00:39:27;1.70;;;1.40;;
60919;SDS011;59039;52.108;19.942;2024-01-16T00:41:52;2.50;;;1.50;;
60919;SDS011;59039;52.108;19.942;2024-01-16T00:44:17;2.40;;;1.50;;
60919;SDS011;59039;52.108;19.942;2024-01-16T00:46:43;1.70;;;1.50;;
60919;SDS011;59039;52.108;19.942;2024-01-16T00:49:08;1.80;;;1.60;;
60919;SDS011;59039;52.108;19.942;2024-01-16T00:51:33;3.20;;;1.70;;
60919;SDS011;59039;52.108;19.942;2024-01-16T00:53:58;3.60;;;1.70;;
60919;SDS011;59039;52.108;19.942;2024-01-16T00:56:24;1.60;;;1.50;;
60919;SDS011;59039;52.108;19.942;2024-01-16T00:58:49;2.30;;;1.80;;
60919;SDS011;59039;52.108;19.942;2024-01-16T01:01:14;2.10;;;1.40;;
60919;SDS011;59039;52.108;19.942;2024-01-16T01:03:39;2.30;;;1.50;;
60919;SDS011;59039;52.108;19.942;2024-01-16T01:06:05;3.20;;;1.90;;
60919;SDS011;59039;52.108;19.942;2024-01-16T01:08:30;3.20;;;1.80;;
60919;SDS011;59039;52.108;19.942;2024-01-16T01:10:55;1.60;;;1.40;;
60919;SDS011;59039;52.108;19.942;2024-01-16T01:13:20;3.20;;;1.50;;
60919;SDS011;59039;52.108;19.942;2024-01-16T01:15:45;2.10;;;1.60;;
60919;SDS011;59039;52.108;19.942;2024-01-16T01:18:11;1.90;;;1.60;;
60919;SDS011;59039;52.108;19.942;2024-01-16T01:20:36;2.90;;;2.00;;
60919;SDS011;59039;52.108;19.942;2024-01-16T01:23:01;5.30;;;1.80;;
60919;SDS011;59039;52.108;19.942;2024-01-16T01:25:26;2.20;;;1.70;;
60919;SDS011;59039;52.108;19.942;2024-01-16T01:27:52;2.80;;;2.10;;
60919;SDS011;59039;52.108;19.942;2024-01-16T01:30:17;2.30;;;1.30;;
60919;SDS011;59039;52.108;19.942;2024-01-16T01:32:42;2.50;;;1.80;;
60919;SDS011;59039;52.108;19.942;2024-01-16T01:35:07;2.00;;;1.60;;
60919;SDS011;59039;52.108;19.942;2024-01-16T01:37:33;3.30;;;2.10;;
60919;SDS011;59039;52.108;19.942;2024-01-16T01:39:58;1.70;;;1.60;;
60919;SDS011;59039;52.108;19.942;2024-01-16T01:42:23;2.90;;;1.70;;
60919;SDS011;59039;52.108;19.942;2024-01-16T01:44:48;3.30;;;1.70;;
60919;SDS011;59039;52.108;19.942;2024-01-16T01:47:14;2.50;;;1.80;;
60919;SDS011;59039;52.108;19.942;2024-01-16T01:49:39;2.20;;;1.50;;
60919;SDS011;59039;52.108;19.942;2024-01-16T01:52:05;2.40;;;1.90;;
60919;SDS011;59039;52.108;19.942;2024-01-16T01:54:33;3.30;;;2.00;;
60919;SDS011;59039;52.108;19.942;2024-01-16T01:57:01;3.20;;;1.70;;
60919;SDS011;59039;52.108;19.942;2024-01-16T01:59:27;3.40;;;1.70;;
60919;SDS011;59039;52.108;19.942;2024-01-16T02:01:52;3.00;;;1.60;;
60919;SDS011;59039;52.108;19.942;2024-01-16T02:04:19;3.00;;;1.70;;
60919;SDS011;59039;52.108;19.942;2024-01-16T02:06:44;3.20;;;1.90;;
60919;SDS011;59039;52.108;19.942;2024-01-16T02:09:10;4.60;;;1.80;;
60919;SDS011;59039;52.108;19.942;2024-01-16T02:11:36;3.00;;;1.70;;
60919;SDS011;59039;52.108;19.942;2024-01-16T02:14:01;7.60;;;2.00;;
60919;SDS011;59039;52.108;19.942;2024-01-16T02:16:27;2.50;;;2.00;;
60919;SDS011;59039;52.108;19.942;2024-01-16T02:19:01;4.10;;;1.80;;
60919;SDS011;59039;52.108;19.942;2024-01-16T02:21:28;2.20;;;1.70;;
60919;SDS011;59039;52.108;19.942;2024-01-16T02:23:56;2.90;;;1.80;;
60919;SDS011;59039;52.108;19.942;2024-01-16T02:26:21;2.70;;;1.80;;
60919;SDS011;59039;52.108;19.942;2024-01-16T02:28:46;4.80;;;1.50;;
60919;SDS011;59039;52.108;19.942;2024-01-16T02:31:11;3.30;;;1.80;;
60919;SDS011;59039;52.108;19.942;2024-01-16T02:33:37;2.90;;;2.00;;
60919;SDS011;59039;52.108;19.942;2024-01-16T02:36:02;3.00;;;1.60;;
60919;SDS011;59039;52.108;19.942;2024-01-16T02:38:27;1.90;;;1.70;;
60919;SDS011;59039;52.108;19.942;2024-01-16T02:40:53;2.60;;;1.60;;
60919;SDS011;59039;52.108;19.942;2024-01-16T02:43:18;4.40;;;1.90;;
60919;SDS011;59039;52.108;19.942;2024-01-16T02:45:43;2.20;;;1.70;;
60919;SDS011;59039;52.108;19.942;2024-01-16T02:48:09;3.20;;;2.10;;
60919;SDS011;59039;52.108;19.942;2024-01-16T02:50:34;3.30;;;2.00;;
60919;SDS011;59039;52.108;19.942;2024-01-16T02:52:59;2.10;;;1.60;;
60919;SDS011;59039;52.108;19.942;2024-01-16T02:55:25;2.60;;;2.00;;
60919;SDS011;59039;52.108;19.942;2024-01-16T02:57:50;3.20;;;1.90;;
60919;SDS011;59039;52.108;19.942;2024-01-16T03:00:15;3.50;;;2.00;;
60919;SDS011;59039;52.108;19.942;2024-01-16T03:02:40;2.50;;;1.80;;
60919;SDS011;59039;52.108;19.942;2024-01-16T03:05:06;2.30;;;1.70;;
60919;SDS011;59039;52.108;19.942;2024-01-16T03:07:31;4.20;;;2.00;;
60919;SDS011;59039;52.108;19.942;2024-01-16T03:09:57;3.30;;;1.70;;
60919;SDS011;59039;52.108;19.942;2024-01-16T03:12:22;2.10;;;1.70;;
60919;SDS011;59039;52.108;19.942;2024-01-16T03:14:48;4.10;;;2.10;;
60919;SDS011;59039;52.108;19.942;2024-01-16T03:17:13;4.20;;;2.30;;
60919;SDS011;59039;52.108;19.942;2024-01-16T03:19:38;2.40;;;1.70;;
60919;SDS011;59039;52.108;19.942;2024-01-16T03:22:03;2.70;;;1.90;;
60919;SDS011;59039;52.108;19.942;2024-01-16T03:24:28;4.00;;;2.20;;
60919;SDS011;59039;52.108;19.942;2024-01-16T03:26:54;4.40;;;2.30;;
60919;SDS011;59039;52.108;19.942;2024-01-16T03:29:19;3.20;;;2.40;;
60919;SDS011;59039;52.108;19.942;2024-01-16T03:31:44;4.00;;;2.10;;
60919;SDS011;59039;52.108;19.942;2024-01-16T03:34:10;2.60;;;1.60;;
60919;SDS011;59039;52.108;19.942;2024-01-16T03:36:35;3.30;;;2.10;;
60919;SDS011;59039;52.108;19.942;2024-01-16T03:39:00;3.00;;;2.20;;
60919;SDS011;59039;52.108;19.942;2024-01-16T03:41:25;4.20;;;2.30;;
60919;SDS011;59039;52.108;19.942;2024-01-16T03:43:51;2.00;;;1.80;;
60919;SDS011;59039;52.108;19.942;2024-01-16T03:46:16;3.40;;;1.90;;
60919;SDS011;59039;52.108;19.942;2024-01-16T03:48:41;4.40;;;1.90;;
60919;SDS011;59039;52.108;19.942;2024-01-16T03:51:06;3.00;;;1.90;;
60919;SDS011;59039;52.108;19.942;2024-01-16T03:53:31;4.40;;;2.00;;
60919;SDS011;59039;52.108;19.942;2024-01-16T03:55:57;3.30;;;2.30;;
60919;SDS011;59039;52.108;19.942;2024-01-16T03:58:22;4.90;;;2.20;;
60919;SDS011;59039;52.108;19.942;2024-01-16T04:00:47;7.60;;;2.40;;
60919;SDS011;59039;52.108;19.942;2024-01-16T04:03:12;13.10;;;3.10;;
60919;SDS011;59039;52.108;19.942;2024-01-16T04:05:38;12.80;;;3.50;;
60919;SDS011;59039;52.108;19.942;2024-01-16T04:08:03;7.80;;;3.50;;
60919;SDS011;59039;52.108;19.942;2024-01-16T04:10:28;12.80;;;3.70;;
60919;SDS011;59039;52.108;19.942;2024-01-16T04:12:53;8.70;;;3.10;;
60919;SDS011;59039;52.108;19.942;2024-01-16T04:15:19;9.40;;;2.80;;
60919;SDS011;59039;52.108;19.942;2024-01-16T04:17:44;3.00;;;1.70;;
60919;SDS011;59039;52.108;19.942;2024-01-16T04:20:09;4.30;;;2.20;;
60919;SDS011;59039;52.108;19.942;2024-01-16T04:22:35;4.30;;;2.20;;
60919;SDS011;59039;52.108;19.942;2024-01-16T04:25:01;3.80;;;2.30;;
60919;SDS011;59039;52.108;19.942;2024-01-16T04:27:26;4.70;;;1.90;;
60919;SDS011;59039;52.108;19.942;2024-01-16T04:29:52;3.40;;;1.80;;
60919;SDS011;59039;52.108;19.942;2024-01-16T04:32:17;3.60;;;1.90;;
60919;SDS011;59039;52.108;19.942;2024-01-16T04:34:42;3.10;;;1.80;;
60919;SDS011;59039;52.108;19.942;2024-01-16T04:37:07;11.00;;;3.10;;
60919;SDS011;59039;52.108;19.942;2024-01-16T04:39:33;13.00;;;4.30;;
60919;SDS011;59039;52.108;19.942;2024-01-16T04:41:58;17.40;;;4.60;;
60919;SDS011;59039;52.108;19.942;2024-01-16T04:44:23;14.20;;;4.30;;
60919;SDS011;59039;52.108;19.942;2024-01-16T04:46:48;8.40;;;3.10;;
60919;SDS011;59039;52.108;19.942;2024-01-16T04:49:14;5.40;;;2.00;;
60919;SDS011;59039;52.108;19.942;2024-01-16T04:51:39;3.30;;;2.00;;
60919;SDS011;59039;52.108;19.942;2024-01-16T04:54:04;3.90;;;2.20;;
60919;SDS011;59039;52.108;19.942;2024-01-16T04:56:29;8.40;;;2.80;;
60919;SDS011;59039;52.108;19.942;2024-01-16T04:58:55;3.20;;;2.20;;
60919;SDS011;59039;52.108;19.942;2024-01-16T05:01:20;7.00;;;3.10;;
60919;SDS011;59039;52.108;19.942;2024-01-16T05:03:45;5.80;;;2.10;;
60919;SDS011;59039;52.108;19.942;2024-01-16T05:06:13;7.30;;;2.80;;
60919;SDS011;59039;52.108;19.942;2024-01-16T05:08:39;6.60;;;3.00;;
60919;SDS011;59039;52.108;19.942;2024-01-16T05:11:04;15.00;;;4.30;;
60919;SDS011;59039;52.108;19.942;2024-01-16T05:13:29;10.00;;;3.80;;
60919;SDS011;59039;52.108;19.942;2024-01-16T05:15:54;6.00;;;2.40;;
60919;SDS011;59039;52.108;19.942;2024-01-16T05:18:20;5.00;;;2.70;;
60919;SDS011;59039;52.108;19.942;2024-01-16T05:20:45;4.10;;;2.00;;
60919;SDS011;59039;52.108;19.942;2024-01-16T05:23:10;4.30;;;2.60;;
60919;SDS011;59039;52.108;19.942;2024-01-16T05:25:35;5.20;;;2.40;;
60919;SDS011;59039;52.108;19.942;2024-01-16T05:28:00;3.60;;;2.50;;
60919;SDS011;59039;52.108;19.942;2024-01-16T05:30:26;6.30;;;2.90;;
60919;SDS011;59039;52.108;19.942;2024-01-16T05:32:51;8.00;;;3.00;;
60919;SDS011;59039;52.108;19.942;2024-01-16T05:35:16;7.30;;;3.30;;
60919;SDS011;59039;52.108;19.942;2024-01-16T05:37:41;4.50;;;2.70;;
60919;SDS011;59039;52.108;19.942;2024-01-16T05:40:07;10.00;;;3.80;;
60919;SDS011;59039;52.108;19.942;2024-01-16T05:42:32;8.90;;;4.50;;
60919;SDS011;59039;52.108;19.942;2024-01-16T05:44:58;10.50;;;5.00;;
60919;SDS011;59039;52.108;19.942;2024-01-16T05:47:23;17.90;;;5.00;;
60919;SDS011;59039;52.108;19.942;2024-01-16T05:49:48;11.70;;;5.00;;
60919;SDS011;59039;52.108;19.942;2024-01-16T05:52:13;9.70;;;4.80;;
60919;SDS011;59039;52.108;19.942;2024-01-16T05:54:38;8.40;;;4.30;;
60919;SDS011;59039;52.108;19.942;2024-01-16T05:57:04;10.00;;;4.10;;
60919;SDS011;59039;52.108;19.942;2024-01-16T05:59:29;6.90;;;3.50;;
60919;SDS011;59039;52.108;19.942;2024-01-16T06:01:54;7.10;;;3.90;;
60919;SDS011;59039;52.108;19.942;2024-01-16T06:04:20;6.50;;;3.40;;
60919;SDS011;59039;52.108;19.942;2024-01-16T06:06:45;5.30;;;3.20;;
60919;SDS011;59039;52.108;19.942;2024-01-16T06:09:10;10.10;;;4.40;;
60919;SDS011;59039;52.108;19.942;2024-01-16T06:11:36;7.90;;;4.20;;
60919;SDS011;59039;52.108;19.942;2024-01-16T06:14:01;10.00;;;3.60;;
60919;SDS011;59039;52.108;19.942;2024-01-16T06:16:26;7.40;;;3.20;;
60919;SDS011;59039;52.108;19.942;2024-01-16T06:18:51;13.10;;;3.80;;
60919;SDS011;59039;52.108;19.942;2024-01-16T06:21:17;6.40;;;3.00;;
60919;SDS011;59039;52.108;19.942;2024-01-16T06:23:42;9.30;;;3.30;;
60919;SDS011;59039;52.108;19.942;2024-01-16T06:26:08;6.10;;;2.70;;
60919;SDS011;59039;52.108;19.942;2024-01-16T06:28:33;5.30;;;2.60;;
60919;SDS011;59039;52.108;19.942;2024-01-16T06:30:58;3.60;;;3.00;;
60919;SDS011;59039;52.108;19.942;2024-01-16T06:33:23;4.20;;;2.80;;
60919;SDS011;59039;52.108;19.942;2024-01-16T06:35:49;6.50;;;3.20;;
60919;SDS011;59039;52.108;19.942;2024-01-16T06:38:14;6.30;;;3.10;;
60919;SDS011;59039;52.108;19.942;2024-01-16T06:40:39;6.90;;;2.90;;
60919;SDS011;59039;52.108;19.942;2024-01-16T06:43:04;7.60;;;4.00;;
60919;SDS011;59039;52.108;19.942;2024-01-16T06:45:29;9.20;;;5.00;;
60919;SDS011;59039;52.108;19.942;2024-01-16T06:47:55;8.30;;;4.40;;
60919;SDS011;59039;52.108;19.942;2024-01-16T06:50:20;5.10;;;3.10;;
60919;SDS011;59039;52.108;19.942;2024-01-16T06:52:45;7.90;;;3.80;;
60919;SDS011;59039;52.108;19.942;2024-01-16T06:55:10;9.20;;;3.70;;
60919;SDS011;59039;52.108;19.942;2024-01-16T06:57:36;7.20;;;3.80;;
60919;SDS011;59039;52.108;19.942;2024-01-16T07:00:01;5.10;;;3.10;;
60919;SDS011;59039;52.108;19.942;2024-01-16T07:02:26;6.10;;;3.20;;
60919;SDS011;59039;52.108;19.942;2024-01-16T07:04:51;9.50;;;4.20;;
60919;SDS011;59039;52.108;19.942;2024-01-16T07:07:16;6.60;;;3.30;;
60919;SDS011;59039;52.108;19.942;2024-01-16T07:09:42;9.10;;;3.70;;
60919;SDS011;59039;52.108;19.942;2024-01-16T07:12:07;10.20;;;4.50;;
60919;SDS011;59039;52.108;19.942;2024-01-16T07:14:32;14.30;;;5.50;;
60919;SDS011;59039;52.108;19.942;2024-01-16T07:16:57;12.60;;;5.70;;
60919;SDS011;59039;52.108;19.942;2024-01-16T07:19:23;17.40;;;6.80;;
60919;SDS011;59039;52.108;19.942;2024-01-16T07:21:48;13.70;;;5.40;;
60919;SDS011;59039;52.108;19.942;2024-01-16T07:24:13;12.80;;;6.50;;
60919;SDS011;59039;52.108;19.942;2024-01-16T07:26:38;24.50;;;9.30;;
60919;SDS011;59039;52.108;19.942;2024-01-16T07:29:03;26.50;;;11.10;;
60919;SDS011;59039;52.108;19.942;2024-01-16T07:31:29;27.90;;;11.20;;
60919;SDS011;59039;52.108;19.942;2024-01-16T07:33:54;20.30;;;9.10;;
60919;SDS011;59039;52.108;19.942;2024-01-16T07:36:19;22.10;;;9.60;;
60919;SDS011;59039;52.108;19.942;2024-01-16T07:38:44;23.40;;;9.20;;
60919;SDS011;59039;52.108;19.942;2024-01-16T07:41:10;29.10;;;9.30;;
60919;SDS011;59039;52.108;19.942;2024-01-16T07:43:35;25.70;;;10.90;;
60919;SDS011;59039;52.108;19.942;2024-01-16T07:46:00;32.60;;;14.60;;
60919;SDS011;59039;52.108;19.942;2024-01-16T07:48:26;33.40;;;14.10;;
60919;SDS011;59039;52.108;19.942;2024-01-16T07:50:51;39.40;;;14.30;;
60919;SDS011;59039;52.108;19.942;2024-01-16T07:53:16;30.30;;;10.50;;
60919;SDS011;59039;52.108;19.942;2024-01-16T07:55:42;27.80;;;9.70;;
60919;SDS011;59039;52.108;19.942;2024-01-16T07:58:07;23.00;;;7.90;;
60919;SDS011;59039;52.108;19.942;2024-01-16T08:00:33;21.80;;;7.90;;
60919;SDS011;59039;52.108;19.942;2024-01-16T08:02:58;27.30;;;8.00;;
60919;SDS011;59039;52.108;19.942;2024-01-16T08:05:24;18.90;;;6.70;;
60919;SDS011;59039;52.108;19.942;2024-01-16T08:07:49;17.90;;;6.80;;
60919;SDS011;59039;52.108;19.942;2024-01-16T08:10:14;20.70;;;6.80;;
60919;SDS011;59039;52.108;19.942;2024-01-16T08:12:39;17.30;;;6.50;;
60919;SDS011;59039;52.108;19.942;2024-01-16T08:15:05;18.60;;;7.20;;
60919;SDS011;59039;52.108;19.942;2024-01-16T08:17:31;14.20;;;5.70;;
60919;SDS011;59039;52.108;19.942;2024-01-16T08:19:56;24.30;;;8.80;;
60919;SDS011;59039;52.108;19.942;2024-01-16T08:22:21;21.30;;;8.60;;
60919;SDS011;59039;52.108;19.942;2024-01-16T08:24:46;20.30;;;7.10;;
60919;SDS011;59039;52.108;19.942;2024-01-16T08:27:11;22.20;;;7.60;;
60919;SDS011;59039;52.108;19.942;2024-01-16T08:29:37;25.00;;;7.30;;
60919;SDS011;59039;52.108;19.942;2024-01-16T08:32:02;19.90;;;6.70;;
60919;SDS011;59039;52.108;19.942;2024-01-16T08:34:27;12.30;;;5.30;;
60919;SDS011;59039;52.108;19.942;2024-01-16T08:36:52;10.80;;;4.50;;
60919;SDS011;59039;52.108;19.942;2024-01-16T08:39:18;14.10;;;4.70;;
60919;SDS011;59039;52.108;19.942;2024-01-16T08:41:43;15.50;;;6.00;;
60919;SDS011;59039;52.108;19.942;2024-01-16T08:44:08;11.20;;;5.10;;
60919;SDS011;59039;52.108;19.942;2024-01-16T08:46:33;15.30;;;6.20;;
60919;SDS011;59039;52.108;19.942;2024-01-16T08:48:58;10.40;;;5.00;;
60919;SDS011;59039;52.108;19.942;2024-01-16T08:51:24;7.90;;;4.40;;
60919;SDS011;59039;52.108;19.942;2024-01-16T08:53:49;11.50;;;3.80;;
60919;SDS011;59039;52.108;19.942;2024-01-16T08:56:14;11.90;;;4.90;;
60919;SDS011;59039;52.108;19.942;2024-01-16T08:58:39;11.40;;;5.40;;
60919;SDS011;59039;52.108;19.942;2024-01-16T09:01:05;15.30;;;5.40;;
60919;SDS011;59039;52.108;19.942;2024-01-16T09:03:31;11.50;;;4.80;;
60919;SDS011;59039;52.108;19.942;2024-01-16T09:06:00;11.80;;;5.00;;
60919;SDS011;59039;52.108;19.942;2024-01-16T09:08:26;11.60;;;4.40;;
60919;SDS011;59039;52.108;19.942;2024-01-16T09:10:55;11.20;;;5.10;;
60919;SDS011;59039;52.108;19.942;2024-01-16T09:13:21;14.50;;;4.40;;
60919;SDS011;59039;52.108;19.942;2024-01-16T09:15:47;18.60;;;4.70;;
60919;SDS011;59039;52.108;19.942;2024-01-16T09:18:13;14.80;;;5.30;;
60919;SDS011;59039;52.108;19.942;2024-01-16T09:20:38;14.50;;;4.10;;
60919;SDS011;59039;52.108;19.942;2024-01-16T09:23:04;14.20;;;4.70;;
60919;SDS011;59039;52.108;19.942;2024-01-16T09:25:29;12.30;;;3.70;;
60919;SDS011;59039;52.108;19.942;2024-01-16T09:27:54;15.60;;;4.30;;
60919;SDS011;59039;52.108;19.942;2024-01-16T09:30:19;8.80;;;4.00;;
60919;SDS011;59039;52.108;19.942;2024-01-16T09:32:45;8.10;;;3.90;;
60919;SDS011;59039;52.108;19.942;2024-01-16T09:35:10;10.70;;;4.00;;
60919;SDS011;59039;52.108;19.942;2024-01-16T09:37:35;13.50;;;4.90;;
60919;SDS011;59039;52.108;19.942;2024-01-16T09:40:00;11.40;;;3.10;;
60919;SDS011;59039;52.108;19.942;2024-01-16T09:42:26;21.30;;;9.60;;
60919;SDS011;59039;52.108;19.942;2024-01-16T09:44:52;16.20;;;4.50;;
60919;SDS011;59039;52.108;19.942;2024-01-16T09:47:20;11.00;;;4.40;;
60919;SDS011;59039;52.108;19.942;2024-01-16T09:49:46;11.90;;;4.00;;
60919;SDS011;59039;52.108;19.942;2024-01-16T09:52:11;10.70;;;4.20;;
60919;SDS011;59039;52.108;19.942;2024-01-16T09:54:37;6.50;;;4.20;;
60919;SDS011;59039;52.108;19.942;2024-01-16T09:57:02;10.50;;;4.10;;
60919;SDS011;59039;52.108;19.942;2024-01-16T09:59:31;8.60;;;3.60;;
60919;SDS011;59039;52.108;19.942;2024-01-16T10:02:00;7.50;;;3.40;;
60919;SDS011;59039;52.108;19.942;2024-01-16T10:04:26;10.10;;;4.50;;
60919;SDS011;59039;52.108;19.942;2024-01-16T10:06:51;8.60;;;3.50;;
60919;SDS011;59039;52.108;19.942;2024-01-16T10:09:17;10.70;;;4.00;;
60919;SDS011;59039;52.108;19.942;2024-01-16T10:11:42;7.50;;;3.50;;
60919;SDS011;59039;52.108;19.942;2024-01-16T10:14:07;7.30;;;3.20;;
60919;SDS011;59039;52.108;19.942;2024-01-16T10:19:27;9.20;;;3.60;;
60919;SDS011;59039;52.108;19.942;2024-01-16T10:22:00;8.30;;;3.50;;
60919;SDS011;59039;52.108;19.942;2024-01-16T10:24:26;7.30;;;3.10;;
60919;SDS011;59039;52.108;19.942;2024-01-16T10:26:57;4.90;;;3.10;;
60919;SDS011;59039;52.108;19.942;2024-01-16T10:29:23;8.70;;;2.90;;
60919;SDS011;59039;52.108;19.942;2024-01-16T10:31:48;14.70;;;3.60;;
60919;SDS011;59039;52.108;19.942;2024-01-16T10:34:20;8.60;;;3.20;;
60919;SDS011;59039;52.108;19.942;2024-01-16T10:36:58;6.70;;;2.80;;
60919;SDS011;59039;52.108;19.942;2024-01-16T10:39:23;5.80;;;2.60;;
60919;SDS011;59039;52.108;19.942;2024-01-16T10:41:56;7.00;;;3.00;;
60919;SDS011;59039;52.108;19.942;2024-01-16T10:44:22;6.30;;;2.40;;
60919;SDS011;59039;52.108;19.942;2024-01-16T10:46:47;5.50;;;2.50;;
60919;SDS011;59039;52.108;19.942;2024-01-16T10:49:12;5.00;;;2.50;;
60919;SDS011;59039;52.108;19.942;2024-01-16T10:51:37;7.80;;;3.00;;
60919;SDS011;59039;52.108;19.942;2024-01-16T10:54:04;6.50;;;2.40;;
60919;SDS011;59039;52.108;19.942;2024-01-16T10:56:29;6.60;;;2.60;;
60919;SDS011;59039;52.108;19.942;2024-01-16T10:58:57;5.20;;;2.70;;
60919;SDS011;59039;52.108;19.942;2024-01-16T11:01:45;3.70;;;2.70;;
60919;SDS011;59039;52.108;19.942;2024-01-16T11:04:14;5.50;;;2.40;;
60919;SDS011;59039;52.108;19.942;2024-01-16T11:06:40;6.20;;;2.30;;
60919;SDS011;59039;52.108;19.942;2024-01-16T11:09:06;3.00;;;2.00;;
60919;SDS011;59039;52.108;19.942;2024-01-16T11:11:32;5.30;;;2.20;;
60919;SDS011;59039;52.108;19.942;2024-01-16T11:13:59;4.20;;;2.30;;
60919;SDS011;59039;52.108;19.942;2024-01-16T11:16:24;2.20;;;1.80;;
60919;SDS011;59039;52.108;19.942;2024-01-16T11:18:50;4.80;;;2.70;;
60919;SDS011;59039;52.108;19.942;2024-01-16T11:21:15;4.70;;;2.10;;
60919;SDS011;59039;52.108;19.942;2024-01-16T11:23:41;4.80;;;1.90;;
60919;SDS011;59039;52.108;19.942;2024-01-16T11:28:58;3.80;;;2.40;;
60919;SDS011;59039;52.108;19.942;2024-01-16T11:31:34;4.50;;;2.20;;
60919;SDS011;59039;52.108;19.942;2024-01-16T11:34:00;5.00;;;2.50;;
60919;SDS011;59039;52.108;19.942;2024-01-16T11:39:18;2.80;;;1.80;;
60919;SDS011;59039;52.108;19.942;2024-01-16T11:41:53;2.70;;;1.70;;
60919;SDS011;59039;52.108;19.942;2024-01-16T11:47:18;5.00;;;2.50;;
60919;SDS011;59039;52.108;19.942;2024-01-16T11:49:44;4.00;;;2.00;;
60919;SDS011;59039;52.108;19.942;2024-01-16T11:52:09;3.10;;;2.20;;
60919;SDS011;59039;52.108;19.942;2024-01-16T11:54:34;5.60;;;2.20;;
60919;SDS011;59039;52.108;19.942;2024-01-16T11:57:18;5.40;;;2.90;;
60919;SDS011;59039;52.108;19.942;2024-01-16T12:00:01;3.80;;;2.20;;
60919;SDS011;59039;52.108;19.942;2024-01-16T12:02:38;6.50;;;2.70;;
60919;SDS011;59039;52.108;19.942;2024-01-16T12:05:14;6.30;;;2.20;;
60919;SDS011;59039;52.108;19.942;2024-01-16T12:07:46;3.70;;;2.30;;
60919;SDS011;59039;52.108;19.942;2024-01-16T12:10:12;4.00;;;2.30;;
60919;SDS011;59039;52.108;19.942;2024-01-16T12:12:37;5.60;;;2.30;;
60919;SDS011;59039;52.108;19.942;2024-01-16T12:15:03;3.90;;;2.10;;
60919;SDS011;59039;52.108;19.942;2024-01-16T12:17:29;4.90;;;2.00;;
60919;SDS011;59039;52.108;19.942;2024-01-16T12:19:54;3.20;;;2.10;;
60919;SDS011;59039;52.108;19.942;2024-01-16T12:22:19;4.30;;;2.60;;
60919;SDS011;59039;52.108;19.942;2024-01-16T12:24:45;8.20;;;3.00;;
60919;SDS011;59039;52.108;19.942;2024-01-16T12:27:10;5.40;;;2.50;;
60919;SDS011;59039;52.108;19.942;2024-01-16T12:29:36;6.50;;;2.60;;
60919;SDS011;59039;52.108;19.942;2024-01-16T12:32:04;3.10;;;2.10;;
60919;SDS011;59039;52.108;19.942;2024-01-16T12:34:30;5.60;;;2.40;;
60919;SDS011;59039;52.108;19.942;2024-01-16T12:37:04;5.10;;;2.20;;
60919;SDS011;59039;52.108;19.942;2024-01-16T12:39:30;2.90;;;2.20;;
60919;SDS011;59039;52.108;19.942;2024-01-16T12:41:55;5.70;;;2.40;;
60919;SDS011;59039;52.108;19.942;2024-01-16T12:44:26;3.30;;;2.10;;
60919;SDS011;59039;52.108;19.942;2024-01-16T12:46:55;6.30;;;2.70;;
60919;SDS011;59039;52.108;19.942;2024-01-16T12:49:20;4.60;;;2.50;;
60919;SDS011;59039;52.108;19.942;2024-01-16T12:51:46;8.40;;;2.60;;
60919;SDS011;59039;52.108;19.942;2024-01-16T12:54:15;5.80;;;3.00;;
60919;SDS011;59039;52.108;19.942;2024-01-16T12:56:42;7.60;;;3.30;;
60919;SDS011;59039;52.108;19.942;2024-01-16T12:59:10;5.10;;;3.50;;
60919;SDS011;59039;52.108;19.942;2024-01-16T13:01:36;6.60;;;2.70;;
60919;SDS011;59039;52.108;19.942;2024-01-16T13:04:08;15.00;;;6.40;;
60919;SDS011;59039;52.108;19.942;2024-01-16T13:06:33;19.20;;;8.30;;
60919;SDS011;59039;52.108;19.942;2024-01-16T13:09:08;9.80;;;4.10;;
60919;SDS011;59039;52.108;19.942;2024-01-16T13:14:16;8.40;;;3.40;;
60919;SDS011;59039;52.108;19.942;2024-01-16T13:16:42;8.20;;;3.40;;
60919;SDS011;59039;52.108;19.942;2024-01-16T13:19:07;5.90;;;2.70;;
60919;SDS011;59039;52.108;19.942;2024-01-16T13:21:32;6.20;;;2.80;;
60919;SDS011;59039;52.108;19.942;2024-01-16T13:23:57;5.90;;;2.30;;
60919;SDS011;59039;52.108;19.942;2024-01-16T13:26:22;5.00;;;2.60;;
60919;SDS011;59039;52.108;19.942;2024-01-16T13:28:48;6.80;;;2.90;;
60919;SDS011;59039;52.108;19.942;2024-01-16T13:31:13;5.70;;;3.00;;
60919;SDS011;59039;52.108;19.942;2024-01-16T13:33:38;3.80;;;2.40;;
60919;SDS011;59039;52.108;19.942;2024-01-16T13:36:03;8.50;;;3.80;;
60919;SDS011;59039;52.108;19.942;2024-01-16T13:38:29;7.90;;;3.40;;
60919;SDS011;59039;52.108;19.942;2024-01-16T13:40:54;4.80;;;2.50;;
60919;SDS011;59039;52.108;19.942;2024-01-16T13:43:19;7.90;;;3.70;;
60919;SDS011;59039;52.108;19.942;2024-01-16T13:45:44;6.90;;;3.50;;
60919;SDS011;59039;52.108;19.942;2024-01-16T13:48:09;4.70;;;2.80;;
60919;SDS011;59039;52.108;19.942;2024-01-16T13:50:35;6.40;;;3.10;;
60919;SDS011;59039;52.108;19.942;2024-01-16T13:53:00;6.30;;;2.80;;
60919;SDS011;59039;52.108;19.942;2024-01-16T13:55:26;5.30;;;2.80;;
60919;SDS011;59039;52.108;19.942;2024-01-16T13:57:51;4.30;;;2.30;;
60919;SDS011;59039;52.108;19.942;2024-01-16T14:00:17;6.50;;;3.00;;
60919;SDS011;59039;52.108;19.942;2024-01-16T14:02:43;6.70;;;3.00;;
60919;SDS011;59039;52.108;19.942;2024-01-16T14:05:12;5.20;;;2.90;;
60919;SDS011;59039;52.108;19.942;2024-01-16T14:07:39;8.30;;;3.10;;
60919;SDS011;59039;52.108;19.942;2024-01-16T14:10:05;6.20;;;2.90;;
60919;SDS011;59039;52.108;19.942;2024-01-16T14:12:32;5.10;;;3.40;;
60919;SDS011;59039;52.108;19.942;2024-01-16T14:14:57;7.90;;;3.70;;
60919;SDS011;59039;52.108;19.942;2024-01-16T14:17:22;8.60;;;3.30;;
60919;SDS011;59039;52.108;19.942;2024-01-16T14:19:48;9.50;;;4.30;;
60919;SDS011;59039;52.108;19.942;2024-01-16T14:22:13;8.30;;;4.00;;
60919;SDS011;59039;52.108;19.942;2024-01-16T14:24:38;22.70;;;7.60;;
60919;SDS011;59039;52.108;19.942;2024-01-16T14:27:03;20.20;;;8.10;;
60919;SDS011;59039;52.108;19.942;2024-01-16T14:29:29;11.30;;;4.90;;
60919;SDS011;59039;52.108;19.942;2024-01-16T14:31:54;11.60;;;4.20;;
60919;SDS011;59039;52.108;19.942;2024-01-16T14:34:19;21.40;;;8.60;;
60919;SDS011;59039;52.108;19.942;2024-01-16T14:36:45;29.00;;;11.50;;